Time;durP1;ratioP1;P1;durP2;ratioP2;P2;SDS_P1;SDS_P2;PMS_P1;PMS_P2;Temp;Humidity;BMP_temperature;BMP_pressure;BME280_temperature;BME280_humidity;BME280_pressure;Samples;Min_cycle;Max_cycle;Signal;HPM_P1;HPM_P2
2022/07/23 00:01:15;;;;;;;0.00;0.00;;;;;;;;;;5067046;28;20049;-60
2022/07/23 00:03:41;;;;;;;0.00;0.00;;;;;;;;;;5067641;28;20071;-60
2022/07/23 00:06:07;;;;;;;0.00;0.00;;;;;;;;;;5067912;28;20049;-60
2022/07/23 00:08:33;;;;;;;0.00;0.00;;;;;;;;;;5067420;28;20525;-62
2022/07/23 00:11:00;;;;;;;0.00;0.00;;;;;;;;;;5067768;28;20416;-61
2022/07/23 00:13:26;;;;;;;0.00;0.00;;;;;;;;;;5066747;28;20048;-60
2022/07/23 00:15:52;;;;;;;0.00;0.00;;;;;;;;;;5067146;28;20134;-60
2022/07/23 00:18:18;;;;;;;0.00;0.00;;;;;;;;;;5067366;28;20056;-60
2022/07/23 00:20:44;;;;;;;0.00;0.00;;;;;;;;;;5067365;28;20057;-60
2022/07/23 00:23:10;;;;;;;0.00;0.00;;;;;;;;;;5067189;28;20049;-60
2022/07/23 00:25:36;;;;;;;0.00;0.00;;;;;;;;;;5066814;28;20048;-60
2022/07/23 00:28:03;;;;;;;0.00;0.00;;;;;;;;;;5067005;28;20071;-60
2022/07/23 00:30:30;;;;;;;0.00;0.00;;;;;;;;;;5067245;28;20106;-60
2022/07/23 00:32:57;;;;;;;0.00;0.00;;;;;;;;;;5069858;28;20047;-60
2022/07/23 00:35:24;;;;;;;0.00;0.00;;;;;;;;;;5070977;28;20075;-60
2022/07/23 00:37:50;;;;;;;0.00;0.00;;;;;;;;;;5070985;28;20056;-60
2022/07/23 00:40:17;;;;;;;0.00;0.00;;;;;;;;;;5070110;28;20055;-61
2022/07/23 00:42:43;;;;;;;0.00;0.00;;;;;;;;;;5071073;28;20498;-60
2022/07/23 00:45:09;;;;;;;0.00;0.00;;;;;;;;;;5071365;28;20083;-60
2022/07/23 00:47:36;;;;;;;0.00;0.00;;;;;;;;;;5070454;28;20048;-60
2022/07/23 00:50:03;;;;;;;0.00;0.00;;;;;;;;;;5070806;28;20079;-60
2022/07/23 00:52:30;;;;;;;0.00;0.00;;;;;;;;;;5070349;28;20052;-61
2022/07/23 00:54:56;;;;;;;0.00;0.00;;;;;;;;;;5070296;28;20044;-60
2022/07/23 00:57:22;;;;;;;0.00;0.00;;;;;;;;;;5070429;28;20426;-61
2022/07/23 00:59:48;;;;;;;0.00;0.00;;;;;;;;;;5070625;28;20460;-60
2022/07/23 01:02:14;;;;;;;0.00;0.00;;;;;;;;;;5070571;28;20048;-60
2022/07/23 01:04:40;;;;;;;0.00;0.00;;;;;;;;;;5070547;28;20107;-60
2022/07/23 01:07:06;;;;;;;0.00;0.00;;;;;;;;;;5069967;28;20040;-60
2022/07/23 01:09:32;;;;;;;0.00;0.00;;;;;;;;;;5070752;28;20123;-61
2022/07/23 01:11:59;;;;;;;0.00;0.00;;;;;;;;;;5070293;28;20429;-60
2022/07/23 01:14:25;;;;;;;0.00;0.00;;;;;;;;;;5070282;28;20147;-60
2022/07/23 01:16:51;;;;;;;0.00;0.00;;;;;;;;;;5070097;28;20052;-60
2022/07/23 01:19:18;;;;;;;0.10;0.10;;;;;;;;;;5069923;28;20415;-60
2022/07/23 01:21:45;;;;;;;0.00;0.00;;;;;;;;;;5070249;28;20056;-60
2022/07/23 01:24:11;;;;;;;0.00;0.00;;;;;;;;;;5069826;28;20055;-60
2022/07/23 01:26:38;;;;;;;0.00;0.00;;;;;;;;;;5069987;28;20091;-60
2022/07/23 01:29:04;;;;;;;0.00;0.00;;;;;;;;;;5070114;28;20044;-60
2022/07/23 01:31:31;;;;;;;0.00;0.00;;;;;;;;;;5069646;28;20048;-60
2022/07/23 01:33:57;;;;;;;0.00;0.00;;;;;;;;;;5069100;28;20457;-61
2022/07/23 01:36:23;;;;;;;0.00;0.00;;;;;;;;;;5070002;28;20081;-60
2022/07/23 01:38:50;;;;;;;0.03;0.03;;;;;;;;;;5069699;28;20068;-60
2022/07/23 01:41:16;;;;;;;0.00;0.00;;;;;;;;;;5069837;28;20441;-60
2022/07/23 01:43:42;;;;;;;0.00;0.00;;;;;;;;;;5069004;28;20536;-60
2022/07/23 01:46:08;;;;;;;0.10;0.10;;;;;;;;;;5069578;28;20458;-60
2022/07/23 01:48:34;;;;;;;0.00;0.00;;;;;;;;;;5069821;28;20391;-60
2022/07/23 01:51:00;;;;;;;0.00;0.00;;;;;;;;;;5069315;28;20090;-60
2022/07/23 01:53:26;;;;;;;0.00;0.00;;;;;;;;;;5069409;28;20048;-60
2022/07/23 01:55:52;;;;;;;0.00;0.00;;;;;;;;;;5069306;28;20097;-60
2022/07/23 01:58:18;;;;;;;0.00;0.00;;;;;;;;;;5068821;28;20052;-60
2022/07/23 02:00:44;;;;;;;0.00;0.00;;;;;;;;;;5069593;28;20448;-60
2022/07/23 02:03:10;;;;;;;0.00;0.00;;;;;;;;;;5069416;28;20126;-60
2022/07/23 02:05:36;;;;;;;0.07;0.07;;;;;;;;;;5069305;28;20045;-60
2022/07/23 02:08:02;;;;;;;0.00;0.00;;;;;;;;;;5069000;28;20040;-60
2022/07/23 02:10:28;;;;;;;0.00;0.00;;;;;;;;;;5069290;28;20052;-60
2022/07/23 02:12:54;;;;;;;0.00;0.00;;;;;;;;;;5068886;28;20483;-60
2022/07/23 02:15:20;;;;;;;0.00;0.00;;;;;;;;;;5069185;28;20040;-60
2022/07/23 02:17:46;;;;;;;0.00;0.00;;;;;;;;;;5068382;28;20053;-60
2022/07/23 02:20:13;;;;;;;0.00;0.00;;;;;;;;;;5068882;28;20048;-60
2022/07/23 02:22:39;;;;;;;0.00;0.00;;;;;;;;;;5068859;28;20053;-60
2022/07/23 02:25:05;;;;;;;0.00;0.00;;;;;;;;;;5068496;28;20045;-60
2022/07/23 02:27:32;;;;;;;0.00;0.00;;;;;;;;;;5067755;28;20044;-60
2022/07/23 02:29:58;;;;;;;0.00;0.00;;;;;;;;;;5068913;28;20045;-60
2022/07/23 02:32:24;;;;;;;0.10;0.10;;;;;;;;;;5068587;28;20040;-60
2022/07/23 02:34:50;;;;;;;0.00;0.00;;;;;;;;;;5068394;28;20056;-60
2022/07/23 02:37:16;;;;;;;0.10;0.10;;;;;;;;;;5068786;28;20053;-60
2022/07/23 02:39:42;;;;;;;0.00;0.00;;;;;;;;;;5068360;28;20052;-60
2022/07/23 02:42:08;;;;;;;0.10;0.10;;;;;;;;;;5068367;28;20461;-60
2022/07/23 02:44:34;;;;;;;0.00;0.00;;;;;;;;;;5068426;28;20529;-61
2022/07/23 02:47:00;;;;;;;0.00;0.00;;;;;;;;;;5068605;28;20538;-60
2022/07/23 02:49:26;;;;;;;0.10;0.10;;;;;;;;;;5068395;28;20048;-60
2022/07/23 02:51:53;;;;;;;0.00;0.00;;;;;;;;;;5068194;28;20185;-60
2022/07/23 02:54:19;;;;;;;0.00;0.00;;;;;;;;;;5067319;28;20135;-60
2022/07/23 02:56:45;;;;;;;0.00;0.00;;;;;;;;;;5068205;28;20049;-61
2022/07/23 02:59:11;;;;;;;0.00;0.00;;;;;;;;;;5068021;28;20434;-61
2022/07/23 03:01:37;;;;;;;0.00;0.00;;;;;;;;;;5067916;28;20139;-61
2022/07/23 03:04:03;;;;;;;0.00;0.00;;;;;;;;;;5068658;28;20090;-60
2022/07/23 03:06:29;;;;;;;0.10;0.10;;;;;;;;;;5068052;28;20498;-60
2022/07/23 03:08:55;;;;;;;0.03;0.03;;;;;;;;;;5068004;28;20082;-60
2022/07/23 03:11:21;;;;;;;0.00;0.00;;;;;;;;;;5068069;28;20087;-60
2022/07/23 03:13:47;;;;;;;0.00;0.00;;;;;;;;;;5068093;28;20048;-60
2022/07/23 03:16:14;;;;;;;0.03;0.03;;;;;;;;;;5068229;28;20055;-61
2022/07/23 03:18:40;;;;;;;0.10;0.10;;;;;;;;;;5067775;28;20482;-60
2022/07/23 03:21:06;;;;;;;0.00;0.00;;;;;;;;;;5068164;28;20155;-61
2022/07/23 03:23:33;;;;;;;0.20;0.20;;;;;;;;;;5067271;28;20048;-60
2022/07/23 03:25:59;;;;;;;0.10;0.10;;;;;;;;;;5068080;28;20044;-60
2022/07/23 03:28:25;;;;;;;0.10;0.10;;;;;;;;;;5067973;28;20044;-60
2022/07/23 03:30:51;;;;;;;0.10;0.10;;;;;;;;;;5067682;28;20044;-60
2022/07/23 03:33:18;;;;;;;0.00;0.00;;;;;;;;;;5067778;28;20047;-61
2022/07/23 03:35:44;;;;;;;0.00;0.00;;;;;;;;;;5067377;28;20486;-60
2022/07/23 03:38:10;;;;;;;0.00;0.00;;;;;;;;;;5067603;28;20048;-61
2022/07/23 03:40:36;;;;;;;0.00;0.00;;;;;;;;;;5067567;28;20466;-60
2022/07/23 03:43:03;;;;;;;0.00;0.00;;;;;;;;;;5067766;28;20044;-60
2022/07/23 03:45:29;;;;;;;0.00;0.00;;;;;;;;;;5067364;28;20134;-60
2022/07/23 03:47:55;;;;;;;0.00;0.00;;;;;;;;;;5067246;28;20048;-62
2022/07/23 03:50:21;;;;;;;0.00;0.00;;;;;;;;;;5067880;28;20132;-60
2022/07/23 03:52:47;;;;;;;0.00;0.00;;;;;;;;;;5067684;28;20048;-60
2022/07/23 03:55:13;;;;;;;0.10;0.10;;;;;;;;;;5067472;28;20048;-60
2022/07/23 03:57:40;;;;;;;0.10;0.10;;;;;;;;;;5067248;28;20051;-61
2022/07/23 04:00:09;;;;;;;0.10;0.10;;;;;;;;;;5067247;28;20052;-61
2022/07/23 04:02:35;;;;;;;0.07;0.07;;;;;;;;;;5067163;28;20052;-61
2022/07/23 04:05:01;;;;;;;0.00;0.00;;;;;;;;;;5067733;28;20052;-60
2022/07/23 04:07:27;;;;;;;0.07;0.07;;;;;;;;;;5069686;28;20095;-60
2022/07/23 04:09:53;;;;;;;0.03;0.03;;;;;;;;;;5071225;28;21517;-60
2022/07/23 04:12:19;;;;;;;0.00;0.00;;;;;;;;;;5071204;28;20068;-60
2022/07/23 04:14:45;;;;;;;0.00;0.00;;;;;;;;;;5071312;28;20044;-60
2022/07/23 04:17:12;;;;;;;0.10;0.10;;;;;;;;;;5070867;28;20044;-60
2022/07/23 04:19:41;;;;;;;0.10;0.10;;;;;;;;;;5071073;28;20063;-60
2022/07/23 04:22:07;;;;;;;0.10;0.10;;;;;;;;;;5071348;28;20056;-60
2022/07/23 04:24:33;;;;;;;0.50;0.17;;;;;;;;;;5070910;28;20040;-60
2022/07/23 04:26:59;;;;;;;0.10;0.10;;;;;;;;;;5071079;28;20053;-60
2022/07/23 04:29:26;;;;;;;0.00;0.00;;;;;;;;;;5070379;28;20052;-60
2022/07/23 04:31:52;;;;;;;0.00;0.00;;;;;;;;;;5071113;28;20123;-60
2022/07/23 04:34:18;;;;;;;0.00;0.00;;;;;;;;;;5070698;28;20045;-60
2022/07/23 04:36:44;;;;;;;0.10;0.10;;;;;;;;;;5071018;28;20044;-60
2022/07/23 04:39:10;;;;;;;0.20;0.20;;;;;;;;;;5070369;28;20048;-60
2022/07/23 04:41:36;;;;;;;0.10;0.10;;;;;;;;;;5070720;28;20123;-61
2022/07/23 04:44:02;;;;;;;0.00;0.00;;;;;;;;;;5070619;28;20053;-60
2022/07/23 04:46:29;;;;;;;0.10;0.10;;;;;;;;;;5070505;28;20498;-61
2022/07/23 04:48:55;;;;;;;0.73;0.53;;;;;;;;;;5069885;28;20725;-61
2022/07/23 04:51:21;;;;;;;1.27;0.73;;;;;;;;;;5070276;28;20041;-60
2022/07/23 04:53:47;;;;;;;0.23;0.23;;;;;;;;;;5070561;28;20105;-60
2022/07/23 04:56:13;;;;;;;0.00;0.00;;;;;;;;;;5070222;28;20045;-61
2022/07/23 04:58:39;;;;;;;0.10;0.10;;;;;;;;;;5069823;28;20049;-60
2022/07/23 05:01:05;;;;;;;0.10;0.10;;;;;;;;;;5070528;28;20041;-60
2022/07/23 05:03:31;;;;;;;0.10;0.10;;;;;;;;;;5070093;28;20076;-60
2022/07/23 05:05:57;;;;;;;0.00;0.00;;;;;;;;;;5070291;28;20044;-61
2022/07/23 05:08:23;;;;;;;0.30;0.30;;;;;;;;;;5069965;28;20048;-61
2022/07/23 05:10:49;;;;;;;0.00;0.00;;;;;;;;;;5070305;28;20044;-61
2022/07/23 05:13:16;;;;;;;0.00;0.00;;;;;;;;;;5069357;28;20040;-60
2022/07/23 05:15:42;;;;;;;0.00;0.00;;;;;;;;;;5069983;28;20467;-61
2022/07/23 05:18:08;;;;;;;0.00;0.00;;;;;;;;;;5069509;28;20044;-61
2022/07/23 05:20:34;;;;;;;0.97;0.57;;;;;;;;;;5069686;28;20067;-60
2022/07/23 05:23:00;;;;;;;0.00;0.00;;;;;;;;;;5070092;28;20525;-61
2022/07/23 05:25:26;;;;;;;0.30;0.20;;;;;;;;;;5069904;28;20056;-61
2022/07/23 05:27:52;;;;;;;0.00;0.00;;;;;;;;;;5068876;28;20577;-60
2022/07/23 05:30:18;;;;;;;0.10;0.10;;;;;;;;;;5069848;28;20079;-61
2022/07/23 05:32:44;;;;;;;0.00;0.00;;;;;;;;;;5069903;28;20048;-61
2022/07/23 05:35:10;;;;;;;0.00;0.00;;;;;;;;;;5069519;28;20045;-60
2022/07/23 05:37:36;;;;;;;0.43;0.43;;;;;;;;;;5069851;28;20053;-61
2022/07/23 05:40:07;;;;;;;0.03;0.03;;;;;;;;;;5069574;28;20150;-61
2022/07/23 05:42:33;;;;;;;2.10;0.40;;;;;;;;;;5069251;28;20052;-61
2022/07/23 05:44:59;;;;;;;0.00;0.00;;;;;;;;;;5069444;28;20053;-60
2022/07/23 05:47:25;;;;;;;0.03;0.03;;;;;;;;;;5069251;28;20055;-60
2022/07/23 05:49:52;;;;;;;0.00;0.00;;;;;;;;;;5069246;28;20094;-61
2022/07/23 05:52:18;;;;;;;0.00;0.00;;;;;;;;;;5069047;28;20102;-61
2022/07/23 05:54:44;;;;;;;0.00;0.00;;;;;;;;;;5069112;28;20052;-61
2022/07/23 05:57:10;;;;;;;0.27;0.27;;;;;;;;;;5069347;28;20067;-61
2022/07/23 05:59:36;;;;;;;0.83;0.30;;;;;;;;;;5068785;28;20071;-60
2022/07/23 06:02:02;;;;;;;0.00;0.00;;;;;;;;;;5069475;28;20063;-61
2022/07/23 06:04:28;;;;;;;0.23;0.23;;;;;;;;;;5068565;28;20048;-61
2022/07/23 06:06:54;;;;;;;0.87;0.40;;;;;;;;;;5068887;28;20505;-61
2022/07/23 06:09:20;;;;;;;1.60;0.40;;;;;;;;;;5067772;28;20075;-60
2022/07/23 06:11:46;;;;;;;0.00;0.00;;;;;;;;;;5069099;28;20122;-61
2022/07/23 06:14:12;;;;;;;0.00;0.00;;;;;;;;;;5069121;28;20052;-60
2022/07/23 06:16:38;;;;;;;0.20;0.20;;;;;;;;;;5069310;28;20048;-60
2022/07/23 06:19:04;;;;;;;0.10;0.10;;;;;;;;;;5068502;28;20085;-60
2022/07/23 06:21:30;;;;;;;0.10;0.10;;;;;;;;;;5068920;28;20045;-60
2022/07/23 06:23:56;;;;;;;0.00;0.00;;;;;;;;;;5069039;28;20049;-60
2022/07/23 06:26:22;;;;;;;0.07;0.07;;;;;;;;;;5068374;28;20102;-61
2022/07/23 06:28:48;;;;;;;0.20;0.20;;;;;;;;;;5068293;28;20128;-60
2022/07/23 06:31:14;;;;;;;0.40;0.33;;;;;;;;;;5067778;28;20045;-61
2022/07/23 06:33:40;;;;;;;0.00;0.00;;;;;;;;;;5068571;28;20052;-60
2022/07/23 06:36:06;;;;;;;0.30;0.30;;;;;;;;;;5068403;28;20051;-60
2022/07/23 06:38:32;;;;;;;0.00;0.00;;;;;;;;;;5068494;28;20075;-60
2022/07/23 06:40:58;;;;;;;0.00;0.00;;;;;;;;;;5068565;28;20045;-60
2022/07/23 06:43:24;;;;;;;0.53;0.40;;;;;;;;;;5068244;28;20084;-60
2022/07/23 06:45:50;;;;;;;0.00;0.00;;;;;;;;;;5067890;28;20497;-60
2022/07/23 06:48:16;;;;;;;0.00;0.00;;;;;;;;;;5067870;28;20047;-60
2022/07/23 06:50:42;;;;;;;0.00;0.00;;;;;;;;;;5068346;28;20044;-60
2022/07/23 06:53:08;;;;;;;0.40;0.30;;;;;;;;;;5068122;28;20090;-60
2022/07/23 06:55:38;;;;;;;0.00;0.00;;;;;;;;;;5068015;28;20048;-60
2022/07/23 06:58:04;;;;;;;0.00;0.00;;;;;;;;;;5067653;28;20055;-60
2022/07/23 07:00:31;;;;;;;0.00;0.00;;;;;;;;;;5067924;28;20048;-60
2022/07/23 07:02:57;;;;;;;0.10;0.10;;;;;;;;;;5068331;28;20048;-60
2022/07/23 07:05:25;;;;;;;0.20;0.20;;;;;;;;;;5067967;28;20048;-60
2022/07/23 07:07:51;;;;;;;0.00;0.00;;;;;;;;;;5067955;28;20060;-60
2022/07/23 07:10:18;;;;;;;0.00;0.00;;;;;;;;;;5068182;28;20044;-60
2022/07/23 07:12:44;;;;;;;0.20;0.10;;;;;;;;;;5067632;28;20084;-60
2022/07/23 07:15:11;;;;;;;0.30;0.20;;;;;;;;;;5067800;28;20076;-60
2022/07/23 07:17:37;;;;;;;0.10;0.10;;;;;;;;;;5067788;28;20041;-60
2022/07/23 07:20:03;;;;;;;0.00;0.00;;;;;;;;;;5067640;28;20395;-60
2022/07/23 07:22:29;;;;;;;0.07;0.00;;;;;;;;;;5067492;28;20044;-60
2022/07/23 07:24:55;;;;;;;0.00;0.00;;;;;;;;;;5067804;28;20079;-61
2022/07/23 07:27:21;;;;;;;0.00;0.00;;;;;;;;;;5067804;28;20037;-60
2022/07/23 07:29:47;;;;;;;0.00;0.00;;;;;;;;;;5067760;28;20055;-60
2022/07/23 07:32:13;;;;;;;0.00;0.00;;;;;;;;;;5065997;28;20044;-60
2022/07/23 07:34:39;;;;;;;0.03;0.00;;;;;;;;;;5067292;28;20110;-60
2022/07/23 07:37:05;;;;;;;0.00;0.00;;;;;;;;;;5067649;28;20576;-60
2022/07/23 07:39:31;;;;;;;0.10;0.10;;;;;;;;;;5067369;28;20040;-61
2022/07/23 07:41:57;;;;;;;0.00;0.00;;;;;;;;;;5067436;28;20051;-61
2022/07/23 07:44:23;;;;;;;0.20;0.20;;;;;;;;;;5067071;28;20053;-60
2022/07/23 07:46:49;;;;;;;0.10;0.10;;;;;;;;;;5067739;28;20052;-60
2022/07/23 07:49:19;;;;;;;0.00;0.00;;;;;;;;;;5067318;28;20410;-60
2022/07/23 07:51:45;;;;;;;0.10;0.10;;;;;;;;;;5067535;28;20094;-60
2022/07/23 07:54:11;;;;;;;0.00;0.00;;;;;;;;;;5066766;28;20044;-60
2022/07/23 07:56:37;;;;;;;0.00;0.00;;;;;;;;;;5067451;28;20052;-60
2022/07/23 07:59:03;;;;;;;0.00;0.00;;;;;;;;;;5067293;28;20542;-60
2022/07/23 08:01:29;;;;;;;0.20;0.10;;;;;;;;;;5067354;28;20049;-61
2022/07/23 08:03:55;;;;;;;0.00;0.00;;;;;;;;;;5067701;28;20505;-60
2022/07/23 08:06:21;;;;;;;0.00;0.00;;;;;;;;;;5066880;28;20051;-60
2022/07/23 08:08:47;;;;;;;0.00;0.00;;;;;;;;;;5067224;28;20079;-60
2022/07/23 08:11:13;;;;;;;0.07;0.07;;;;;;;;;;5067189;28;20088;-61
2022/07/23 08:13:39;;;;;;;0.00;0.00;;;;;;;;;;5067110;28;20080;-60
2022/07/23 08:16:05;;;;;;;0.00;0.00;;;;;;;;;;5067097;28;20523;-60
2022/07/23 08:18:31;;;;;;;0.00;0.00;;;;;;;;;;5066464;28;20044;-60
2022/07/23 08:20:57;;;;;;;0.00;0.00;;;;;;;;;;5067239;28;20131;-60
2022/07/23 08:23:23;;;;;;;0.00;0.00;;;;;;;;;;5067276;28;20036;-61
2022/07/23 08:25:49;;;;;;;0.10;0.00;;;;;;;;;;5066116;28;20041;-60
2022/07/23 08:28:16;;;;;;;0.20;0.10;;;;;;;;;;5067054;28;20044;-60
2022/07/23 08:30:43;;;;;;;0.10;0.10;;;;;;;;;;5067228;28;20037;-60
2022/07/23 08:33:11;;;;;;;0.00;0.00;;;;;;;;;;5066813;28;20045;-60
2022/07/23 08:35:38;;;;;;;0.00;0.00;;;;;;;;;;5066638;28;20056;-60
2022/07/23 08:38:06;;;;;;;0.00;0.00;;;;;;;;;;5066895;28;20411;-60
2022/07/23 08:40:33;;;;;;;0.00;0.00;;;;;;;;;;5066969;28;20473;-60
2022/07/23 08:42:59;;;;;;;0.00;0.00;;;;;;;;;;5066602;28;20063;-60
2022/07/23 08:45:26;;;;;;;0.00;0.00;;;;;;;;;;5066344;28;20214;-60
2022/07/23 08:47:53;;;;;;;0.10;0.10;;;;;;;;;;5066864;28;20041;-60
2022/07/23 08:50:20;;;;;;;0.00;0.00;;;;;;;;;;5066971;28;20044;-60
2022/07/23 08:52:47;;;;;;;0.00;0.00;;;;;;;;;;5067471;28;20082;-59
2022/07/23 08:55:13;;;;;;;0.00;0.00;;;;;;;;;;5069935;28;20094;-60
2022/07/23 08:57:39;;;;;;;0.00;0.00;;;;;;;;;;5070288;28;20045;-60
2022/07/23 09:00:06;;;;;;;0.67;0.40;;;;;;;;;;5070421;28;20393;-60
2022/07/23 09:02:38;;;;;;;0.00;0.00;;;;;;;;;;5070321;28;20048;-60
2022/07/23 09:05:06;;;;;;;0.10;0.10;;;;;;;;;;5069933;28;20040;-60
2022/07/23 09:07:32;;;;;;;0.17;0.13;;;;;;;;;;5070110;28;20048;-60
2022/07/23 09:10:09;;;;;;;0.00;0.00;;;;;;;;;;5070218;28;20115;-60
2022/07/23 09:12:35;;;;;;;0.00;0.00;;;;;;;;;;5070093;28;20044;-60
2022/07/23 09:15:08;;;;;;;0.00;0.00;;;;;;;;;;5070064;28;20601;-60
2022/07/23 09:17:42;;;;;;;0.00;0.00;;;;;;;;;;5069223;28;20045;-61
2022/07/23 09:20:09;;;;;;;0.00;0.00;;;;;;;;;;5070124;28;20543;-60
2022/07/23 09:22:35;;;;;;;0.00;0.00;;;;;;;;;;5069696;28;20080;-60
2022/07/23 09:25:10;;;;;;;0.00;0.00;;;;;;;;;;5069564;28;20072;-60
2022/07/23 09:27:48;;;;;;;0.20;0.20;;;;;;;;;;5070290;28;20052;-60
2022/07/23 09:30:14;;;;;;;0.00;0.00;;;;;;;;;;5069938;28;20086;-60
2022/07/23 09:32:40;;;;;;;0.00;0.00;;;;;;;;;;5069471;28;20425;-60
2022/07/23 09:35:07;;;;;;;0.00;0.00;;;;;;;;;;5069324;28;20097;-60
2022/07/23 09:37:33;;;;;;;0.00;0.00;;;;;;;;;;5069570;28;20078;-61
2022/07/23 09:40:11;;;;;;;0.10;0.10;;;;;;;;;;5068674;28;20088;-60
2022/07/23 09:42:37;;;;;;;1.58;0.43;;;;;;;;;;5068951;28;20045;-61
2022/07/23 09:45:12;;;;;;;4.50;0.57;;;;;;;;;;5069647;28;20143;-60
2022/07/23 09:47:38;;;;;;;2.30;0.70;;;;;;;;;;5069309;28;20147;-61
2022/07/23 09:50:08;;;;;;;1.25;0.70;;;;;;;;;;5069376;28;20170;-60
2022/07/23 09:52:35;;;;;;;1.00;0.57;;;;;;;;;;5069502;28;20537;-61
2022/07/23 09:55:02;;;;;;;2.72;0.60;;;;;;;;;;5068698;28;20044;-60
2022/07/23 09:57:28;;;;;;;1.80;0.70;;;;;;;;;;5069117;28;20041;-60
2022/07/23 09:59:57;;;;;;;1.48;0.60;;;;;;;;;;5069642;28;20123;-61
2022/07/23 10:02:23;;;;;;;2.20;0.70;;;;;;;;;;5069137;28;20422;-60
2022/07/23 10:04:49;;;;;;;2.42;0.70;;;;;;;;;;5068814;28;20048;-60
2022/07/23 10:07:17;;;;;;;2.13;0.80;;;;;;;;;;5068787;28;20490;-61
2022/07/23 10:09:44;;;;;;;3.22;1.25;;;;;;;;;;5068791;28;20461;-61
2022/07/23 10:14:58;;;;;;;1.05;0.50;;;;;;;;;;5068540;28;20080;-60
2022/07/23 10:17:24;;;;;;;2.83;0.68;;;;;;;;;;5068758;28;20063;-61
2022/07/23 10:19:51;;;;;;;1.98;0.70;;;;;;;;;;5068849;28;20048;-60
2022/07/23 10:22:27;;;;;;;1.45;0.60;;;;;;;;;;5068756;28;20055;-60
2022/07/23 10:25:11;;;;;;;0.90;0.60;;;;;;;;;;5068453;28;20041;-60
2022/07/23 10:27:37;;;;;;;2.78;0.82;;;;;;;;;;5068778;28;20502;-61
2022/07/23 10:30:08;;;;;;;2.05;0.80;;;;;;;;;;5068503;28;20048;-60
2022/07/23 10:32:57;;;;;;;2.38;0.90;;;;;;;;;;5068674;28;20084;-61
2022/07/23 10:35:26;;;;;;;2.72;0.90;;;;;;;;;;5068057;28;20123;-61
2022/07/23 10:37:55;;;;;;;1.50;0.60;;;;;;;;;;5068737;28;20048;-60
2022/07/23 10:40:23;;;;;;;1.10;0.70;;;;;;;;;;5067776;28;20052;-61
2022/07/23 10:42:51;;;;;;;1.77;0.70;;;;;;;;;;5068418;28;20083;-60
2022/07/23 10:45:33;;;;;;;2.00;0.90;;;;;;;;;;5068722;28;20074;-60
2022/07/23 10:48:14;;;;;;;2.35;0.80;;;;;;;;;;5068293;28;20091;-61
2022/07/23 10:50:40;;;;;;;2.05;0.80;;;;;;;;;;5068272;28;20048;-61
2022/07/23 10:53:06;;;;;;;2.50;0.98;;;;;;;;;;5067600;28;20541;-60
2022/07/23 10:55:32;;;;;;;4.03;1.10;;;;;;;;;;5067963;28;20110;-61
2022/07/23 10:57:58;;;;;;;1.55;0.90;;;;;;;;;;5068311;28;20056;-60
2022/07/23 11:00:25;;;;;;;1.52;0.80;;;;;;;;;;5067851;28;20617;-60
2022/07/23 11:02:52;;;;;;;1.45;0.60;;;;;;;;;;5068057;28;20040;-61
2022/07/23 11:05:23;;;;;;;1.40;0.70;;;;;;;;;;5067356;28;20082;-60
2022/07/23 11:08:04;;;;;;;2.85;0.93;;;;;;;;;;5068173;28;20063;-60
2022/07/23 11:10:39;;;;;;;1.60;0.95;;;;;;;;;;5067995;28;20453;-61
2022/07/23 11:13:23;;;;;;;1.48;0.77;;;;;;;;;;5068108;28;20158;-60
2022/07/23 11:16:12;;;;;;;4.80;1.10;;;;;;;;;;5067514;28;20052;-60
2022/07/23 11:18:44;;;;;;;2.83;0.90;;;;;;;;;;5064357;28;20444;-60
2022/07/23 11:21:36;;;;;;;3.13;0.80;;;;;;;;;;5067727;28;20044;-61
2022/07/23 11:24:02;;;;;;;2.08;1.10;;;;;;;;;;5066340;28;20052;-61
2022/07/23 11:26:49;;;;;;;2.40;0.88;;;;;;;;;;5067568;28;20403;-60
2022/07/23 11:29:37;;;;;;;2.58;0.80;;;;;;;;;;5067788;28;20098;-60
2022/07/23 11:32:19;;;;;;;1.73;0.95;;;;;;;;;;5067488;28;20114;-60
2022/07/23 11:34:46;;;;;;;1.25;0.90;;;;;;;;;;5067146;28;20531;-61
2022/07/23 11:37:26;;;;;;;2.65;1.05;;;;;;;;;;5067476;28;20542;-61
2022/07/23 11:39:55;;;;;;;2.33;0.90;;;;;;;;;;5067811;28;20131;-60
2022/07/23 11:42:21;;;;;;;2.25;1.10;;;;;;;;;;5067116;28;20037;-61
2022/07/23 11:44:48;;;;;;;3.33;1.17;;;;;;;;;;5066905;28;20060;-60
2022/07/23 11:47:14;;;;;;;2.00;1.00;;;;;;;;;;5067590;28;20155;-61
2022/07/23 11:49:52;;;;;;;4.03;1.30;;;;;;;;;;5067243;28;20048;-60
2022/07/23 11:52:18;;;;;;;4.97;1.40;;;;;;;;;;5067365;28;20048;-60
2022/07/23 11:54:53;;;;;;;1.77;0.90;;;;;;;;;;5067236;28;20450;-61
2022/07/23 11:57:19;;;;;;;3.13;0.93;;;;;;;;;;5067227;28;20092;-61
2022/07/23 11:59:47;;;;;;;4.70;1.50;;;;;;;;;;5067126;28;20607;-60
2022/07/23 12:02:13;;;;;;;4.03;1.58;;;;;;;;;;5067215;28;20047;-60
2022/07/23 12:04:42;;;;;;;2.50;1.00;;;;;;;;;;5067053;28;20049;-61
2022/07/23 12:07:28;;;;;;;2.20;0.93;;;;;;;;;;5067131;28;20052;-60
2022/07/23 12:09:54;;;;;;;1.40;0.90;;;;;;;;;;5067318;28;20055;-60
2022/07/23 12:12:21;;;;;;;2.58;1.10;;;;;;;;;;5066559;28;20043;-60
2022/07/23 12:14:57;;;;;;;4.10;1.08;;;;;;;;;;5067074;28;20137;-61
2022/07/23 12:17:31;;;;;;;2.08;1.10;;;;;;;;;;5067085;28;20075;-61
2022/07/23 12:20:01;;;;;;;2.20;0.98;;;;;;;;;;5067248;28;20044;-60
2022/07/23 12:22:34;;;;;;;2.25;1.17;;;;;;;;;;5066917;28;20058;-60
2022/07/23 12:25:02;;;;;;;4.70;1.52;;;;;;;;;;5067285;28;20048;-60
2022/07/23 12:27:29;;;;;;;2.70;1.75;;;;;;;;;;5067347;28;20130;-60
2022/07/23 12:29:55;;;;;;;3.47;1.20;;;;;;;;;;5071089;28;20040;-61
2022/07/23 12:32:26;;;;;;;2.65;1.30;;;;;;;;;;5071016;28;20040;-60
2022/07/23 12:35:03;;;;;;;2.33;0.98;;;;;;;;;;5070346;28;20135;-61
2022/07/23 12:37:31;;;;;;;3.25;1.25;;;;;;;;;;5070642;28;20094;-61
2022/07/23 12:39:57;;;;;;;2.05;1.08;;;;;;;;;;5070847;28;20047;-61
2022/07/23 12:42:24;;;;;;;4.15;1.50;;;;;;;;;;5070183;28;20644;-60
2022/07/23 12:45:09;;;;;;;3.58;1.05;;;;;;;;;;5070637;28;21369;-60
2022/07/23 12:47:56;;;;;;;2.55;1.38;;;;;;;;;;5070421;28;20064;-61
2022/07/23 12:50:34;;;;;;;2.10;1.08;;;;;;;;;;5070442;28;20075;-60
2022/07/23 12:53:19;;;;;;;2.92;0.90;;;;;;;;;;5070417;28;20896;-61
2022/07/23 12:55:46;;;;;;;2.22;0.90;;;;;;;;;;5069936;28;20052;-60
2022/07/23 12:58:18;;;;;;;3.30;0.93;;;;;;;;;;5070318;28;20036;-61
2022/07/23 13:01:01;;;;;;;2.58;0.95;;;;;;;;;;5070408;28;20047;-60
2022/07/23 13:03:35;;;;;;;2.35;1.10;;;;;;;;;;5070468;28;20120;-60
2022/07/23 13:06:01;;;;;;;2.47;1.10;;;;;;;;;;5070486;28;20521;-61
2022/07/23 13:08:29;;;;;;;2.10;0.90;;;;;;;;;;5070239;28;20049;-60
2022/07/23 13:10:55;;;;;;;2.17;1.10;;;;;;;;;;5069961;28;20054;-61
2022/07/23 13:13:22;;;;;;;3.50;1.10;;;;;;;;;;5070302;28;20040;-60
2022/07/23 13:15:48;;;;;;;3.35;1.10;;;;;;;;;;5069803;28;20044;-60
2022/07/23 13:18:14;;;;;;;2.47;1.20;;;;;;;;;;5069732;28;20048;-60
2022/07/23 13:20:40;;;;;;;3.38;1.25;;;;;;;;;;5069788;28;20052;-60
2022/07/23 13:23:07;;;;;;;3.15;1.08;;;;;;;;;;5069808;28;20630;-60
2022/07/23 13:25:33;;;;;;;1.85;1.13;;;;;;;;;;5069864;28;20131;-61
2022/07/23 13:27:59;;;;;;;1.50;1.00;;;;;;;;;;5070147;28;20051;-60
2022/07/23 13:30:25;;;;;;;1.40;0.90;;;;;;;;;;5069455;28;20145;-61
2022/07/23 13:32:51;;;;;;;1.95;1.00;;;;;;;;;;5069649;28;20502;-61
2022/07/23 13:35:17;;;;;;;3.45;1.33;;;;;;;;;;5069773;28;20418;-60
2022/07/23 13:37:44;;;;;;;2.45;1.25;;;;;;;;;;5069559;28;20055;-61
2022/07/23 13:40:10;;;;;;;2.30;1.30;;;;;;;;;;5068558;28;20909;-60
2022/07/23 13:42:37;;;;;;;2.63;1.27;;;;;;;;;;5069638;28;20359;-61
2022/07/23 13:45:04;;;;;;;2.15;1.10;;;;;;;;;;5069642;28;20469;-60
2022/07/23 13:47:30;;;;;;;2.75;0.80;;;;;;;;;;5069562;28;20049;-60
2022/07/23 13:49:56;;;;;;;2.35;1.10;;;;;;;;;;5069157;28;20040;-60
2022/07/23 13:52:22;;;;;;;4.32;1.20;;;;;;;;;;5069354;28;20055;-60
2022/07/23 13:54:48;;;;;;;1.58;0.90;;;;;;;;;;5069208;28;20049;-61
2022/07/23 13:57:14;;;;;;;1.80;1.05;;;;;;;;;;5069422;28;20408;-61
2022/07/23 13:59:40;;;;;;;2.35;0.90;;;;;;;;;;5068731;28;20045;-61
2022/07/23 14:02:07;;;;;;;1.92;0.90;;;;;;;;;;5069553;28;20458;-61
2022/07/23 14:04:33;;;;;;;3.20;1.58;;;;;;;;;;5069231;28;20057;-61
2022/07/23 14:06:59;;;;;;;2.10;1.10;;;;;;;;;;5068834;28;20414;-60
2022/07/23 14:09:25;;;;;;;2.50;0.75;;;;;;;;;;5069105;28;20045;-60
2022/07/23 14:11:51;;;;;;;3.25;1.00;;;;;;;;;;5069444;28;20048;-60
2022/07/23 14:14:18;;;;;;;2.30;1.00;;;;;;;;;;5068666;28;20162;-60
2022/07/23 14:16:44;;;;;;;2.92;0.90;;;;;;;;;;5068939;28;20054;-61
2022/07/23 14:19:11;;;;;;;1.55;0.90;;;;;;;;;;5068659;28;20072;-59
2022/07/23 14:21:37;;;;;;;1.52;1.00;;;;;;;;;;5068918;28;20508;-60
2022/07/23 14:24:03;;;;;;;2.10;1.00;;;;;;;;;;5068742;28;20044;-60
2022/07/23 14:26:30;;;;;;;1.60;1.02;;;;;;;;;;5068669;28;20136;-60
2022/07/23 14:28:56;;;;;;;2.13;1.00;;;;;;;;;;5068336;28;20049;-61
2022/07/23 14:31:22;;;;;;;1.40;0.77;;;;;;;;;;5068508;28;20052;-61
2022/07/23 14:33:48;;;;;;;1.90;0.80;;;;;;;;;;5068215;28;20053;-60
2022/07/23 14:36:15;;;;;;;2.63;1.00;;;;;;;;;;5068593;28;20044;-60
2022/07/23 14:38:41;;;;;;;1.67;0.88;;;;;;;;;;5067878;28;20396;-60
2022/07/23 14:41:07;;;;;;;1.92;1.00;;;;;;;;;;5068180;28;20114;-60
2022/07/23 14:43:34;;;;;;;2.55;0.90;;;;;;;;;;5068192;28;20056;-60
2022/07/23 14:46:00;;;;;;;1.88;1.10;;;;;;;;;;5068223;28;20048;-60
2022/07/23 14:48:26;;;;;;;3.50;1.02;;;;;;;;;;5068320;28;20055;-60